sensor_id;sensor_type;location;lat;lon;timestamp;P1;durP1;ratioP1;P2;durP2;ratioP2
38513;SDS011;24282;48.400;10.808;2023-06-14T00:00:12;2.70;;;1.90;;
38513;SDS011;24282;48.400;10.808;2023-06-14T00:02:40;3.23;;;1.67;;
38513;SDS011;24282;48.400;10.808;2023-06-14T00:05:06;1.70;;;1.50;;
38513;SDS011;24282;48.400;10.808;2023-06-14T00:07:33;3.20;;;1.80;;
38513;SDS011;24282;48.400;10.808;2023-06-14T00:10:00;2.50;;;1.70;;
38513;SDS011;24282;48.400;10.808;2023-06-14T00:12:26;1.87;;;1.30;;
38513;SDS011;24282;48.400;10.808;2023-06-14T00:14:52;2.60;;;1.97;;
38513;SDS011;24282;48.400;10.808;2023-06-14T00:17:18;1.80;;;1.50;;
38513;SDS011;24282;48.400;10.808;2023-06-14T00:19:44;2.10;;;1.60;;
38513;SDS011;24282;48.400;10.808;2023-06-14T00:22:11;2.53;;;1.77;;
38513;SDS011;24282;48.400;10.808;2023-06-14T00:24:37;2.17;;;1.70;;
38513;SDS011;24282;48.400;10.808;2023-06-14T00:27:03;2.00;;;1.70;;
38513;SDS011;24282;48.400;10.808;2023-06-14T00:29:29;2.20;;;1.80;;
38513;SDS011;24282;48.400;10.808;2023-06-14T00:31:55;3.07;;;1.90;;
38513;SDS011;24282;48.400;10.808;2023-06-14T00:34:21;2.60;;;2.20;;
38513;SDS011;24282;48.400;10.808;2023-06-14T00:36:46;2.17;;;1.47;;
38513;SDS011;24282;48.400;10.808;2023-06-14T00:39:13;2.70;;;1.70;;
38513;SDS011;24282;48.400;10.808;2023-06-14T00:41:39;2.47;;;1.70;;
38513;SDS011;24282;48.400;10.808;2023-06-14T00:44:05;2.77;;;1.60;;
38513;SDS011;24282;48.400;10.808;2023-06-14T00:46:31;2.33;;;1.57;;
38513;SDS011;24282;48.400;10.808;2023-06-14T00:48:56;2.33;;;1.60;;
38513;SDS011;24282;48.400;10.808;2023-06-14T00:51:25;2.33;;;1.70;;
38513;SDS011;24282;48.400;10.808;2023-06-14T00:53:52;2.70;;;1.93;;
38513;SDS011;24282;48.400;10.808;2023-06-14T00:56:18;2.40;;;1.70;;
38513;SDS011;24282;48.400;10.808;2023-06-14T00:58:49;2.40;;;1.70;;
38513;SDS011;24282;48.400;10.808;2023-06-14T01:01:16;2.50;;;1.60;;
38513;SDS011;24282;48.400;10.808;2023-06-14T01:03:42;2.03;;;1.80;;
38513;SDS011;24282;48.400;10.808;2023-06-14T01:06:27;2.33;;;1.70;;
38513;SDS011;24282;48.400;10.808;2023-06-14T01:12:11;2.63;;;1.97;;
38513;SDS011;24282;48.400;10.808;2023-06-14T01:14:42;2.83;;;1.70;;
38513;SDS011;24282;48.400;10.808;2023-06-14T01:17:08;2.10;;;1.57;;
38513;SDS011;24282;48.400;10.808;2023-06-14T01:19:44;2.20;;;1.70;;
38513;SDS011;24282;48.400;10.808;2023-06-14T01:22:13;2.33;;;1.70;;
38513;SDS011;24282;48.400;10.808;2023-06-14T01:24:39;2.73;;;1.60;;
38513;SDS011;24282;48.400;10.808;2023-06-14T01:27:10;1.83;;;1.33;;
38513;SDS011;24282;48.400;10.808;2023-06-14T01:29:38;2.00;;;1.70;;
38513;SDS011;24282;48.400;10.808;2023-06-14T01:32:04;3.00;;;2.00;;
38513;SDS011;24282;48.400;10.808;2023-06-14T01:34:30;4.07;;;1.77;;
38513;SDS011;24282;48.400;10.808;2023-06-14T01:36:56;2.70;;;1.70;;
38513;SDS011;24282;48.400;10.808;2023-06-14T01:39:25;2.53;;;1.70;;
38513;SDS011;24282;48.400;10.808;2023-06-14T01:41:51;2.00;;;1.50;;
38513;SDS011;24282;48.400;10.808;2023-06-14T01:44:17;2.27;;;1.80;;
38513;SDS011;24282;48.400;10.808;2023-06-14T01:46:45;2.57;;;1.70;;
38513;SDS011;24282;48.400;10.808;2023-06-14T01:49:11;3.57;;;1.70;;
38513;SDS011;24282;48.400;10.808;2023-06-14T01:51:37;2.23;;;1.67;;
38513;SDS011;24282;48.400;10.808;2023-06-14T01:54:02;2.57;;;1.60;;
38513;SDS011;24282;48.400;10.808;2023-06-14T01:56:30;3.73;;;1.77;;
38513;SDS011;24282;48.400;10.808;2023-06-14T01:58:56;3.43;;;1.87;;
38513;SDS011;24282;48.400;10.808;2023-06-14T02:01:22;2.40;;;1.90;;
38513;SDS011;24282;48.400;10.808;2023-06-14T02:03:48;1.93;;;1.60;;
38513;SDS011;24282;48.400;10.808;2023-06-14T02:06:15;2.20;;;1.90;;
38513;SDS011;24282;48.400;10.808;2023-06-14T02:08:43;2.77;;;1.90;;
38513;SDS011;24282;48.400;10.808;2023-06-14T02:11:10;1.90;;;1.50;;
38513;SDS011;24282;48.400;10.808;2023-06-14T02:13:35;1.90;;;1.60;;
38513;SDS011;24282;48.400;10.808;2023-06-14T02:16:01;2.47;;;1.80;;
38513;SDS011;24282;48.400;10.808;2023-06-14T02:18:28;2.50;;;2.00;;
38513;SDS011;24282;48.400;10.808;2023-06-14T02:20:55;2.07;;;1.67;;
38513;SDS011;24282;48.400;10.808;2023-06-14T02:23:21;2.67;;;1.40;;
38513;SDS011;24282;48.400;10.808;2023-06-14T02:25:47;2.13;;;1.73;;
38513;SDS011;24282;48.400;10.808;2023-06-14T02:28:12;2.17;;;1.77;;
38513;SDS011;24282;48.400;10.808;2023-06-14T02:30:38;3.17;;;1.80;;
38513;SDS011;24282;48.400;10.808;2023-06-14T02:33:05;1.90;;;1.60;;
38513;SDS011;24282;48.400;10.808;2023-06-14T02:35:31;3.07;;;1.90;;
38513;SDS011;24282;48.400;10.808;2023-06-14T02:37:57;2.33;;;1.60;;
38513;SDS011;24282;48.400;10.808;2023-06-14T02:40:23;2.20;;;1.50;;
38513;SDS011;24282;48.400;10.808;2023-06-14T02:42:48;2.50;;;1.70;;
38513;SDS011;24282;48.400;10.808;2023-06-14T02:45:15;2.30;;;1.70;;
38513;SDS011;24282;48.400;10.808;2023-06-14T02:47:42;4.30;;;1.80;;
38513;SDS011;24282;48.400;10.808;2023-06-14T02:50:07;2.60;;;1.60;;
38513;SDS011;24282;48.400;10.808;2023-06-14T02:52:34;3.57;;;2.07;;
38513;SDS011;24282;48.400;10.808;2023-06-14T02:54:59;2.60;;;1.87;;
38513;SDS011;24282;48.400;10.808;2023-06-14T02:57:25;2.80;;;1.90;;
38513;SDS011;24282;48.400;10.808;2023-06-14T02:59:51;2.97;;;1.70;;
38513;SDS011;24282;48.400;10.808;2023-06-14T03:02:18;2.90;;;2.00;;
38513;SDS011;24282;48.400;10.808;2023-06-14T03:04:44;2.53;;;1.77;;
38513;SDS011;24282;48.400;10.808;2023-06-14T03:07:15;2.17;;;1.57;;
38513;SDS011;24282;48.400;10.808;2023-06-14T03:09:46;2.70;;;1.80;;
38513;SDS011;24282;48.400;10.808;2023-06-14T03:12:15;3.73;;;1.80;;
38513;SDS011;24282;48.400;10.808;2023-06-14T03:14:40;1.97;;;1.60;;
38513;SDS011;24282;48.400;10.808;2023-06-14T03:17:08;2.43;;;1.80;;
38513;SDS011;24282;48.400;10.808;2023-06-14T03:19:38;2.27;;;1.77;;
38513;SDS011;24282;48.400;10.808;2023-06-14T03:22:06;2.43;;;1.90;;
38513;SDS011;24282;48.400;10.808;2023-06-14T03:24:33;4.10;;;1.70;;
38513;SDS011;24282;48.400;10.808;2023-06-14T03:27:03;2.87;;;1.70;;
38513;SDS011;24282;48.400;10.808;2023-06-14T03:29:29;2.07;;;1.53;;
38513;SDS011;24282;48.400;10.808;2023-06-14T03:31:56;3.23;;;2.23;;
38513;SDS011;24282;48.400;10.808;2023-06-14T03:34:24;2.57;;;1.70;;
38513;SDS011;24282;48.400;10.808;2023-06-14T03:36:50;2.57;;;1.93;;
38513;SDS011;24282;48.400;10.808;2023-06-14T03:39:15;2.57;;;1.77;;
38513;SDS011;24282;48.400;10.808;2023-06-14T03:41:41;2.97;;;1.80;;
38513;SDS011;24282;48.400;10.808;2023-06-14T03:44:07;2.70;;;2.00;;
38513;SDS011;24282;48.400;10.808;2023-06-14T03:46:33;2.43;;;1.80;;
38513;SDS011;24282;48.400;10.808;2023-06-14T03:48:59;2.83;;;2.00;;
38513;SDS011;24282;48.400;10.808;2023-06-14T03:51:25;2.77;;;1.90;;
38513;SDS011;24282;48.400;10.808;2023-06-14T03:53:51;2.03;;;1.77;;
38513;SDS011;24282;48.400;10.808;2023-06-14T03:56:17;2.27;;;1.67;;
38513;SDS011;24282;48.400;10.808;2023-06-14T03:58:43;2.43;;;1.77;;
38513;SDS011;24282;48.400;10.808;2023-06-14T04:01:09;2.40;;;1.90;;
38513;SDS011;24282;48.400;10.808;2023-06-14T04:03:37;2.37;;;1.80;;
38513;SDS011;24282;48.400;10.808;2023-06-14T04:06:05;2.27;;;1.87;;
38513;SDS011;24282;48.400;10.808;2023-06-14T04:08:32;2.23;;;1.77;;
38513;SDS011;24282;48.400;10.808;2023-06-14T04:10:59;2.83;;;2.00;;
38513;SDS011;24282;48.400;10.808;2023-06-14T04:13:25;2.57;;;2.20;;
38513;SDS011;24282;48.400;10.808;2023-06-14T04:15:51;2.53;;;1.87;;
38513;SDS011;24282;48.400;10.808;2023-06-14T04:18:22;2.17;;;1.70;;
38513;SDS011;24282;48.400;10.808;2023-06-14T04:20:49;2.87;;;1.80;;
38513;SDS011;24282;48.400;10.808;2023-06-14T04:23:16;2.53;;;2.10;;
38513;SDS011;24282;48.400;10.808;2023-06-14T04:25:48;3.15;;;1.83;;
38513;SDS011;24282;48.400;10.808;2023-06-14T04:28:15;2.80;;;1.90;;
38513;SDS011;24282;48.400;10.808;2023-06-14T04:30:43;2.77;;;2.07;;
38513;SDS011;24282;48.400;10.808;2023-06-14T04:33:14;2.43;;;2.00;;
38513;SDS011;24282;48.400;10.808;2023-06-14T04:35:40;2.43;;;1.63;;
38513;SDS011;24282;48.400;10.808;2023-06-14T04:38:07;2.83;;;2.20;;
38513;SDS011;24282;48.400;10.808;2023-06-14T04:40:35;2.57;;;2.10;;
38513;SDS011;24282;48.400;10.808;2023-06-14T04:43:08;2.73;;;2.10;;
38513;SDS011;24282;48.400;10.808;2023-06-14T04:45:39;2.70;;;1.93;;
38513;SDS011;24282;48.400;10.808;2023-06-14T04:48:07;3.03;;;1.97;;
38513;SDS011;24282;48.400;10.808;2023-06-14T04:50:32;3.63;;;2.00;;
38513;SDS011;24282;48.400;10.808;2023-06-14T04:53:00;5.23;;;2.20;;
38513;SDS011;24282;48.400;10.808;2023-06-14T04:55:26;2.97;;;2.20;;
38513;SDS011;24282;48.400;10.808;2023-06-14T04:57:52;2.07;;;1.80;;
38513;SDS011;24282;48.400;10.808;2023-06-14T05:00:19;3.43;;;2.20;;
38513;SDS011;24282;48.400;10.808;2023-06-14T05:02:45;3.70;;;2.40;;
38513;SDS011;24282;48.400;10.808;2023-06-14T05:05:12;2.60;;;1.70;;
38513;SDS011;24282;48.400;10.808;2023-06-14T05:07:38;3.20;;;2.20;;
38513;SDS011;24282;48.400;10.808;2023-06-14T05:10:04;2.50;;;2.10;;
38513;SDS011;24282;48.400;10.808;2023-06-14T05:12:31;2.63;;;2.03;;
38513;SDS011;24282;48.400;10.808;2023-06-14T05:14:57;4.27;;;2.23;;
38513;SDS011;24282;48.400;10.808;2023-06-14T05:17:24;4.23;;;2.50;;
38513;SDS011;24282;48.400;10.808;2023-06-14T05:19:50;2.53;;;2.00;;
38513;SDS011;24282;48.400;10.808;2023-06-14T05:22:15;3.67;;;2.27;;
38513;SDS011;24282;48.400;10.808;2023-06-14T05:24:41;3.27;;;2.43;;
38513;SDS011;24282;48.400;10.808;2023-06-14T05:27:07;3.33;;;2.40;;
38513;SDS011;24282;48.400;10.808;2023-06-14T05:29:33;3.50;;;2.23;;
38513;SDS011;24282;48.400;10.808;2023-06-14T05:31:58;3.30;;;2.47;;
38513;SDS011;24282;48.400;10.808;2023-06-14T05:34:25;3.33;;;2.50;;
38513;SDS011;24282;48.400;10.808;2023-06-14T05:36:50;3.53;;;2.10;;
38513;SDS011;24282;48.400;10.808;2023-06-14T05:39:16;4.17;;;2.17;;
38513;SDS011;24282;48.400;10.808;2023-06-14T05:41:42;3.40;;;2.60;;
38513;SDS011;24282;48.400;10.808;2023-06-14T05:44:08;2.83;;;2.03;;
38513;SDS011;24282;48.400;10.808;2023-06-14T05:46:34;3.97;;;2.60;;
38513;SDS011;24282;48.400;10.808;2023-06-14T05:49:00;2.90;;;1.83;;
38513;SDS011;24282;48.400;10.808;2023-06-14T05:51:25;4.10;;;2.70;;
38513;SDS011;24282;48.400;10.808;2023-06-14T05:53:51;4.10;;;2.40;;
38513;SDS011;24282;48.400;10.808;2023-06-14T05:56:17;3.77;;;2.00;;
38513;SDS011;24282;48.400;10.808;2023-06-14T05:58:43;3.53;;;2.43;;
38513;SDS011;24282;48.400;10.808;2023-06-14T06:01:13;3.53;;;2.10;;
38513;SDS011;24282;48.400;10.808;2023-06-14T06:03:39;3.67;;;2.00;;
38513;SDS011;24282;48.400;10.808;2023-06-14T06:06:05;5.43;;;2.77;;
38513;SDS011;24282;48.400;10.808;2023-06-14T06:08:31;2.97;;;2.17;;
38513;SDS011;24282;48.400;10.808;2023-06-14T06:10:58;3.70;;;2.40;;
38513;SDS011;24282;48.400;10.808;2023-06-14T06:13:25;3.10;;;2.30;;
38513;SDS011;24282;48.400;10.808;2023-06-14T06:15:50;5.17;;;2.50;;
38513;SDS011;24282;48.400;10.808;2023-06-14T06:18:16;3.37;;;2.30;;
38513;SDS011;24282;48.400;10.808;2023-06-14T06:20:42;3.43;;;2.27;;
38513;SDS011;24282;48.400;10.808;2023-06-14T06:23:09;3.60;;;2.37;;
38513;SDS011;24282;48.400;10.808;2023-06-14T06:25:35;3.13;;;2.17;;
38513;SDS011;24282;48.400;10.808;2023-06-14T06:28:00;3.83;;;2.50;;
38513;SDS011;24282;48.400;10.808;2023-06-14T06:30:26;3.23;;;2.03;;
38513;SDS011;24282;48.400;10.808;2023-06-14T06:32:52;3.10;;;2.37;;
38513;SDS011;24282;48.400;10.808;2023-06-14T06:35:18;3.20;;;2.23;;
38513;SDS011;24282;48.400;10.808;2023-06-14T06:37:44;4.93;;;2.50;;
38513;SDS011;24282;48.400;10.808;2023-06-14T06:40:09;4.68;;;2.20;;
38513;SDS011;24282;48.400;10.808;2023-06-14T06:42:35;3.37;;;2.20;;
38513;SDS011;24282;48.400;10.808;2023-06-14T06:45:04;2.58;;;2.10;;
38513;SDS011;24282;48.400;10.808;2023-06-14T06:47:30;2.60;;;2.03;;
38513;SDS011;24282;48.400;10.808;2023-06-14T06:49:56;4.38;;;1.90;;
38513;SDS011;24282;48.400;10.808;2023-06-14T06:52:21;3.25;;;2.40;;
38513;SDS011;24282;48.400;10.808;2023-06-14T06:54:47;3.35;;;1.60;;
38513;SDS011;24282;48.400;10.808;2023-06-14T06:57:14;3.28;;;1.77;;
38513;SDS011;24282;48.400;10.808;2023-06-14T06:59:40;2.58;;;1.80;;
38513;SDS011;24282;48.400;10.808;2023-06-14T07:02:05;2.50;;;1.70;;
38513;SDS011;24282;48.400;10.808;2023-06-14T07:04:31;2.67;;;1.92;;
38513;SDS011;24282;48.400;10.808;2023-06-14T07:06:57;3.05;;;2.22;;
38513;SDS011;24282;48.400;10.808;2023-06-14T07:09:23;2.40;;;1.80;;
38513;SDS011;24282;48.400;10.808;2023-06-14T07:11:49;3.55;;;1.48;;
38513;SDS011;24282;48.400;10.808;2023-06-14T07:14:15;2.47;;;1.77;;
38513;SDS011;24282;48.400;10.808;2023-06-14T07:16:41;1.95;;;1.50;;
38513;SDS011;24282;48.400;10.808;2023-06-14T07:19:08;2.08;;;1.58;;
38513;SDS011;24282;48.400;10.808;2023-06-14T07:21:34;2.53;;;1.65;;
38513;SDS011;24282;48.400;10.808;2023-06-14T07:24:00;2.25;;;1.50;;
38513;SDS011;24282;48.400;10.808;2023-06-14T07:26:26;5.57;;;2.08;;
38513;SDS011;24282;48.400;10.808;2023-06-14T07:28:52;3.72;;;2.08;;
38513;SDS011;24282;48.400;10.808;2023-06-14T07:31:17;2.20;;;1.58;;
38513;SDS011;24282;48.400;10.808;2023-06-14T07:33:44;2.17;;;1.60;;
38513;SDS011;24282;48.400;10.808;2023-06-14T07:36:10;2.22;;;1.55;;
38513;SDS011;24282;48.400;10.808;2023-06-14T07:38:36;1.98;;;1.52;;
38513;SDS011;24282;48.400;10.808;2023-06-14T07:41:02;2.15;;;1.60;;
38513;SDS011;24282;48.400;10.808;2023-06-14T07:43:28;1.77;;;1.63;;
38513;SDS011;24282;48.400;10.808;2023-06-14T07:45:53;2.63;;;1.88;;
38513;SDS011;24282;48.400;10.808;2023-06-14T07:48:20;2.30;;;1.55;;
38513;SDS011;24282;48.400;10.808;2023-06-14T07:50:46;1.90;;;1.40;;
38513;SDS011;24282;48.400;10.808;2023-06-14T07:53:11;1.98;;;1.58;;
38513;SDS011;24282;48.400;10.808;2023-06-14T07:55:37;2.35;;;1.60;;
38513;SDS011;24282;48.400;10.808;2023-06-14T07:58:09;2.55;;;1.48;;
38513;SDS011;24282;48.400;10.808;2023-06-14T08:00:35;3.33;;;1.77;;
38513;SDS011;24282;48.400;10.808;2023-06-14T08:03:01;2.15;;;1.50;;
38513;SDS011;24282;48.400;10.808;2023-06-14T08:05:28;2.55;;;1.60;;
38513;SDS011;24282;48.400;10.808;2023-06-14T08:07:54;2.38;;;1.35;;
38513;SDS011;24282;48.400;10.808;2023-06-14T08:10:20;2.28;;;1.83;;
38513;SDS011;24282;48.400;10.808;2023-06-14T08:12:47;2.50;;;1.80;;
38513;SDS011;24282;48.400;10.808;2023-06-14T08:15:15;3.15;;;1.55;;
38513;SDS011;24282;48.400;10.808;2023-06-14T08:17:44;2.38;;;1.30;;
38513;SDS011;24282;48.400;10.808;2023-06-14T08:20:13;2.22;;;1.42;;
38513;SDS011;24282;48.400;10.808;2023-06-14T08:22:41;2.45;;;1.70;;
38513;SDS011;24282;48.400;10.808;2023-06-14T08:25:07;1.95;;;1.38;;
38513;SDS011;24282;48.400;10.808;2023-06-14T08:27:33;3.40;;;1.30;;
38513;SDS011;24282;48.400;10.808;2023-06-14T08:30:00;2.92;;;1.58;;
38513;SDS011;24282;48.400;10.808;2023-06-14T08:32:25;1.80;;;1.33;;
38513;SDS011;24282;48.400;10.808;2023-06-14T08:34:51;1.85;;;1.00;;
38513;SDS011;24282;48.400;10.808;2023-06-14T08:37:17;1.38;;;1.27;;
38513;SDS011;24282;48.400;10.808;2023-06-14T08:39:43;4.00;;;1.73;;
38513;SDS011;24282;48.400;10.808;2023-06-14T08:42:09;2.13;;;1.67;;
38513;SDS011;24282;48.400;10.808;2023-06-14T08:44:35;2.60;;;1.65;;
38513;SDS011;24282;48.400;10.808;2023-06-14T08:47:01;3.05;;;1.15;;
38513;SDS011;24282;48.400;10.808;2023-06-14T08:49:31;1.65;;;1.10;;
38513;SDS011;24282;48.400;10.808;2023-06-14T08:51:58;4.07;;;1.70;;
38513;SDS011;24282;48.400;10.808;2023-06-14T08:54:28;3.70;;;1.48;;
38513;SDS011;24282;48.400;10.808;2023-06-14T08:57:01;2.35;;;1.25;;
38513;SDS011;24282;48.400;10.808;2023-06-14T08:59:32;2.00;;;1.15;;
38513;SDS011;24282;48.400;10.808;2023-06-14T09:02:04;3.50;;;1.30;;
38513;SDS011;24282;48.400;10.808;2023-06-14T09:04:31;1.70;;;1.33;;
38513;SDS011;24282;48.400;10.808;2023-06-14T09:06:58;3.33;;;1.38;;
38513;SDS011;24282;48.400;10.808;2023-06-14T09:09:24;2.58;;;1.45;;
38513;SDS011;24282;48.400;10.808;2023-06-14T09:11:50;2.50;;;1.58;;
38513;SDS011;24282;48.400;10.808;2023-06-14T09:14:18;2.05;;;1.25;;
38513;SDS011;24282;48.400;10.808;2023-06-14T09:16:44;2.17;;;1.25;;
38513;SDS011;24282;48.400;10.808;2023-06-14T09:19:25;2.08;;;1.20;;
38513;SDS011;24282;48.400;10.808;2023-06-14T09:21:52;1.50;;;1.10;;
38513;SDS011;24282;48.400;10.808;2023-06-14T09:24:18;1.35;;;1.05;;
38513;SDS011;24282;48.400;10.808;2023-06-14T09:26:47;1.92;;;1.20;;
38513;SDS011;24282;48.400;10.808;2023-06-14T09:29:12;2.75;;;1.52;;
38513;SDS011;24282;48.400;10.808;2023-06-14T09:31:38;2.30;;;1.20;;
38513;SDS011;24282;48.400;10.808;2023-06-14T09:34:04;2.95;;;1.15;;
38513;SDS011;24282;48.400;10.808;2023-06-14T09:36:31;1.55;;;1.10;;
38513;SDS011;24282;48.400;10.808;2023-06-14T09:38:58;2.08;;;1.10;;
38513;SDS011;24282;48.400;10.808;2023-06-14T09:41:32;3.10;;;1.20;;
38513;SDS011;24282;48.400;10.808;2023-06-14T09:43:59;2.40;;;1.23;;
38513;SDS011;24282;48.400;10.808;2023-06-14T09:46:29;1.85;;;1.10;;
38513;SDS011;24282;48.400;10.808;2023-06-14T09:48:56;2.17;;;1.30;;
38513;SDS011;24282;48.400;10.808;2023-06-14T09:51:25;1.60;;;1.30;;
38513;SDS011;24282;48.400;10.808;2023-06-14T09:53:52;1.67;;;1.27;;
38513;SDS011;24282;48.400;10.808;2023-06-14T09:56:27;2.10;;;1.30;;
38513;SDS011;24282;48.400;10.808;2023-06-14T09:58:58;2.88;;;1.48;;
38513;SDS011;24282;48.400;10.808;2023-06-14T10:01:25;1.25;;;1.15;;
38513;SDS011;24282;48.400;10.808;2023-06-14T10:03:55;1.60;;;1.15;;
38513;SDS011;24282;48.400;10.808;2023-06-14T10:06:31;1.70;;;1.10;;
38513;SDS011;24282;48.400;10.808;2023-06-14T10:09:02;2.33;;;1.58;;
38513;SDS011;24282;48.400;10.808;2023-06-14T10:11:30;1.38;;;1.00;;
38513;SDS011;24282;48.400;10.808;2023-06-14T10:13:57;1.63;;;1.15;;
38513;SDS011;24282;48.400;10.808;2023-06-14T10:16:34;1.60;;;1.10;;
38513;SDS011;24282;48.400;10.808;2023-06-14T10:24:26;1.55;;;1.10;;
38513;SDS011;24282;48.400;10.808;2023-06-14T10:26:58;1.75;;;1.00;;
38513;SDS011;24282;48.400;10.808;2023-06-14T10:29:27;1.85;;;1.20;;
38513;SDS011;24282;48.400;10.808;2023-06-14T10:31:57;2.33;;;1.20;;
38513;SDS011;24282;48.400;10.808;2023-06-14T10:34:30;2.13;;;1.10;;
38513;SDS011;24282;48.400;10.808;2023-06-14T10:39:52;1.63;;;1.15;;
38513;SDS011;24282;48.400;10.808;2023-06-14T10:42:19;1.83;;;1.17;;
38513;SDS011;24282;48.400;10.808;2023-06-14T10:44:54;1.17;;;1.00;;
38513;SDS011;24282;48.400;10.808;2023-06-14T10:47:24;1.58;;;0.95;;
38513;SDS011;24282;48.400;10.808;2023-06-14T10:50:10;1.33;;;0.93;;
38513;SDS011;24282;48.400;10.808;2023-06-14T10:52:39;1.58;;;1.27;;
38513;SDS011;24282;48.400;10.808;2023-06-14T10:55:09;1.90;;;1.27;;
38513;SDS011;24282;48.400;10.808;2023-06-14T10:57:47;1.20;;;1.00;;
38513;SDS011;24282;48.400;10.808;2023-06-14T11:00:17;1.60;;;1.30;;
38513;SDS011;24282;48.400;10.808;2023-06-14T11:05:23;2.53;;;1.30;;
38513;SDS011;24282;48.400;10.808;2023-06-14T11:10:38;1.35;;;0.88;;
38513;SDS011;24282;48.400;10.808;2023-06-14T11:13:05;2.58;;;1.25;;
38513;SDS011;24282;48.400;10.808;2023-06-14T11:15:32;1.65;;;1.02;;
38513;SDS011;24282;48.400;10.808;2023-06-14T11:18:05;4.05;;;1.65;;
38513;SDS011;24282;48.400;10.808;2023-06-14T11:20:33;1.70;;;1.05;;
38513;SDS011;24282;48.400;10.808;2023-06-14T11:23:00;1.90;;;1.25;;
38513;SDS011;24282;48.400;10.808;2023-06-14T11:25:27;2.30;;;1.23;;
38513;SDS011;24282;48.400;10.808;2023-06-14T11:27:56;1.95;;;1.20;;
38513;SDS011;24282;48.400;10.808;2023-06-14T11:30:22;1.65;;;1.30;;
38513;SDS011;24282;48.400;10.808;2023-06-14T11:32:51;1.98;;;1.13;;
38513;SDS011;24282;48.400;10.808;2023-06-14T11:35:18;2.00;;;1.10;;
38513;SDS011;24282;48.400;10.808;2023-06-14T11:37:48;2.72;;;1.48;;
38513;SDS011;24282;48.400;10.808;2023-06-14T11:40:14;2.25;;;1.20;;
38513;SDS011;24282;48.400;10.808;2023-06-14T11:42:41;1.20;;;1.10;;
38513;SDS011;24282;48.400;10.808;2023-06-14T11:45:07;1.63;;;1.13;;
38513;SDS011;24282;48.400;10.808;2023-06-14T11:47:34;2.10;;;1.27;;
38513;SDS011;24282;48.400;10.808;2023-06-14T11:50:01;1.15;;;0.98;;
38513;SDS011;24282;48.400;10.808;2023-06-14T11:52:28;2.40;;;1.58;;
38513;SDS011;24282;48.400;10.808;2023-06-14T11:54:54;1.42;;;1.10;;
38513;SDS011;24282;48.400;10.808;2023-06-14T11:57:21;1.95;;;1.38;;
38513;SDS011;24282;48.400;10.808;2023-06-14T11:59:46;1.27;;;1.08;;
38513;SDS011;24282;48.400;10.808;2023-06-14T12:02:14;1.30;;;1.05;;
38513;SDS011;24282;48.400;10.808;2023-06-14T12:04:41;3.17;;;1.10;;
38513;SDS011;24282;48.400;10.808;2023-06-14T12:10:25;1.75;;;1.25;;
38513;SDS011;24282;48.400;10.808;2023-06-14T12:12:28;1.67;;;1.00;;
38513;SDS011;24282;48.400;10.808;2023-06-14T12:14:57;2.63;;;1.30;;
38513;SDS011;24282;48.400;10.808;2023-06-14T12:17:23;2.10;;;1.13;;
38513;SDS011;24282;48.400;10.808;2023-06-14T12:19:49;1.65;;;1.10;;
38513;SDS011;24282;48.400;10.808;2023-06-14T12:22:15;2.42;;;1.33;;
38513;SDS011;24282;48.400;10.808;2023-06-14T12:24:42;1.73;;;1.20;;
38513;SDS011;24282;48.400;10.808;2023-06-14T12:27:08;1.42;;;1.10;;
38513;SDS011;24282;48.400;10.808;2023-06-14T12:29:36;1.73;;;1.10;;
38513;SDS011;24282;48.400;10.808;2023-06-14T12:32:02;1.90;;;1.10;;
38513;SDS011;24282;48.400;10.808;2023-06-14T12:34:28;2.30;;;1.10;;
38513;SDS011;24282;48.400;10.808;2023-06-14T12:36:54;2.10;;;1.33;;
38513;SDS011;24282;48.400;10.808;2023-06-14T12:39:20;1.10;;;1.00;;
38513;SDS011;24282;48.400;10.808;2023-06-14T12:41:46;1.60;;;1.20;;
38513;SDS011;24282;48.400;10.808;2023-06-14T12:44:13;1.85;;;0.88;;
38513;SDS011;24282;48.400;10.808;2023-06-14T12:46:43;4.90;;;1.10;;
38513;SDS011;24282;48.400;10.808;2023-06-14T12:49:10;1.25;;;1.13;;
38513;SDS011;24282;48.400;10.808;2023-06-14T12:51:37;1.95;;;1.10;;
38513;SDS011;24282;48.400;10.808;2023-06-14T12:54:04;1.83;;;1.25;;
38513;SDS011;24282;48.400;10.808;2023-06-14T12:56:29;1.40;;;1.10;;
38513;SDS011;24282;48.400;10.808;2023-06-14T12:58:55;2.15;;;1.13;;
38513;SDS011;24282;48.400;10.808;2023-06-14T13:01:21;1.38;;;1.08;;
38513;SDS011;24282;48.400;10.808;2023-06-14T13:03:47;1.52;;;1.20;;
38513;SDS011;24282;48.400;10.808;2023-06-14T13:06:15;1.52;;;1.20;;
38513;SDS011;24282;48.400;10.808;2023-06-14T13:08:40;1.42;;;0.95;;
38513;SDS011;24282;48.400;10.808;2023-06-14T13:11:06;1.00;;;0.90;;
38513;SDS011;24282;48.400;10.808;2023-06-14T13:13:32;2.00;;;1.38;;
38513;SDS011;24282;48.400;10.808;2023-06-14T13:15:58;3.72;;;0.90;;
38513;SDS011;24282;48.400;10.808;2023-06-14T13:18:24;1.70;;;1.08;;
38513;SDS011;24282;48.400;10.808;2023-06-14T13:20:50;1.20;;;1.02;;
38513;SDS011;24282;48.400;10.808;2023-06-14T13:23:16;1.23;;;0.98;;
38513;SDS011;24282;48.400;10.808;2023-06-14T13:25:42;2.08;;;1.20;;
38513;SDS011;24282;48.400;10.808;2023-06-14T13:30:43;2.20;;;1.00;;
38513;SDS011;24282;48.400;10.808;2023-06-14T13:33:10;2.13;;;1.38;;
38513;SDS011;24282;48.400;10.808;2023-06-14T13:35:35;1.50;;;1.10;;
38513;SDS011;24282;48.400;10.808;2023-06-14T13:38:01;1.50;;;1.00;;
38513;SDS011;24282;48.400;10.808;2023-06-14T13:40:28;3.50;;;1.35;;
38513;SDS011;24282;48.400;10.808;2023-06-14T13:42:54;2.53;;;1.30;;
38513;SDS011;24282;48.400;10.808;2023-06-14T13:45:19;1.95;;;1.00;;
38513;SDS011;24282;48.400;10.808;2023-06-14T13:47:45;2.08;;;1.05;;
38513;SDS011;24282;48.400;10.808;2023-06-14T13:50:13;1.73;;;1.50;;
38513;SDS011;24282;48.400;10.808;2023-06-14T13:52:39;2.45;;;1.20;;
38513;SDS011;24282;48.400;10.808;2023-06-14T13:55:05;2.05;;;1.10;;
38513;SDS011;24282;48.400;10.808;2023-06-14T13:57:31;2.60;;;0.90;;
38513;SDS011;24282;48.400;10.808;2023-06-14T13:59:57;1.83;;;1.00;;
38513;SDS011;24282;48.400;10.808;2023-06-14T14:02:26;2.17;;;1.00;;
38513;SDS011;24282;48.400;10.808;2023-06-14T14:04:54;0.90;;;0.80;;
38513;SDS011;24282;48.400;10.808;2023-06-14T14:07:20;1.73;;;0.93;;
38513;SDS011;24282;48.400;10.808;2023-06-14T14:09:47;1.90;;;1.20;;
38513;SDS011;24282;48.400;10.808;2023-06-14T14:12:13;1.90;;;1.13;;
38513;SDS011;24282;48.400;10.808;2023-06-14T14:14:39;3.03;;;1.30;;
38513;SDS011;24282;48.400;10.808;2023-06-14T14:17:05;1.33;;;1.10;;
38513;SDS011;24282;48.400;10.808;2023-06-14T14:19:32;1.08;;;0.88;;
38513;SDS011;24282;48.400;10.808;2023-06-14T14:21:58;1.67;;;0.93;;
38513;SDS011;24282;48.400;10.808;2023-06-14T14:24:23;1.23;;;0.98;;
38513;SDS011;24282;48.400;10.808;2023-06-14T14:26:49;1.90;;;1.23;;
38513;SDS011;24282;48.400;10.808;2023-06-14T14:29:18;2.33;;;1.60;;
38513;SDS011;24282;48.400;10.808;2023-06-14T14:31:45;1.45;;;1.10;;
38513;SDS011;24282;48.400;10.808;2023-06-14T14:34:11;2.75;;;1.60;;
38513;SDS011;24282;48.400;10.808;2023-06-14T14:36:37;2.25;;;1.38;;
38513;SDS011;24282;48.400;10.808;2023-06-14T14:39:07;1.98;;;1.10;;
38513;SDS011;24282;48.400;10.808;2023-06-14T14:41:33;3.05;;;1.45;;
38513;SDS011;24282;48.400;10.808;2023-06-14T14:43:59;1.60;;;1.20;;
38513;SDS011;24282;48.400;10.808;2023-06-14T14:46:26;1.75;;;1.08;;
38513;SDS011;24282;48.400;10.808;2023-06-14T14:48:53;1.55;;;1.17;;
38513;SDS011;24282;48.400;10.808;2023-06-14T14:51:18;2.03;;;1.30;;
38513;SDS011;24282;48.400;10.808;2023-06-14T14:53:44;1.63;;;1.25;;